sensor_id;sensor_type;location;lat;lon;timestamp;P1;durP1;ratioP1;P2;durP2;ratioP2
68854;SDS011;69984;-43.570;172.580;2024-01-10T00:01:51;5.40;;;0.68;;
68854;SDS011;69984;-43.570;172.580;2024-01-10T00:04:19;4.30;;;0.57;;
68854;SDS011;69984;-43.570;172.580;2024-01-10T00:06:46;1.98;;;0.57;;
68854;SDS011;69984;-43.570;172.580;2024-01-10T00:09:13;5.13;;;0.70;;
68854;SDS011;69984;-43.570;172.580;2024-01-10T00:11:40;8.35;;;0.93;;
68854;SDS011;69984;-43.570;172.580;2024-01-10T00:14:07;6.55;;;0.60;;
68854;SDS011;69984;-43.570;172.580;2024-01-10T00:16:35;7.32;;;0.90;;
68854;SDS011;69984;-43.570;172.580;2024-01-10T00:19:02;6.25;;;1.23;;
68854;SDS011;69984;-43.570;172.580;2024-01-10T00:21:30;6.57;;;0.65;;
68854;SDS011;69984;-43.570;172.580;2024-01-10T00:23:57;9.60;;;0.70;;
68854;SDS011;69984;-43.570;172.580;2024-01-10T00:26:24;6.85;;;0.68;;
68854;SDS011;69984;-43.570;172.580;2024-01-10T00:28:51;10.43;;;0.68;;
68854;SDS011;69984;-43.570;172.580;2024-01-10T00:31:18;4.43;;;0.50;;
68854;SDS011;69984;-43.570;172.580;2024-01-10T00:33:45;2.88;;;0.60;;
68854;SDS011;69984;-43.570;172.580;2024-01-10T00:36:12;2.60;;;0.63;;
68854;SDS011;69984;-43.570;172.580;2024-01-10T00:38:39;5.07;;;0.90;;
68854;SDS011;69984;-43.570;172.580;2024-01-10T00:41:06;11.55;;;0.60;;
68854;SDS011;69984;-43.570;172.580;2024-01-10T00:43:33;8.68;;;0.65;;
68854;SDS011;69984;-43.570;172.580;2024-01-10T00:46:00;8.10;;;0.85;;
68854;SDS011;69984;-43.570;172.580;2024-01-10T00:48:27;6.72;;;0.80;;
68854;SDS011;69984;-43.570;172.580;2024-01-10T00:50:54;0.85;;;0.30;;
68854;SDS011;69984;-43.570;172.580;2024-01-10T00:53:21;10.02;;;2.03;;
68854;SDS011;69984;-43.570;172.580;2024-01-10T00:55:48;8.93;;;1.05;;
68854;SDS011;69984;-43.570;172.580;2024-01-10T00:58:15;3.58;;;0.60;;
68854;SDS011;69984;-43.570;172.580;2024-01-10T01:00:42;11.13;;;1.02;;
68854;SDS011;69984;-43.570;172.580;2024-01-10T01:03:09;3.38;;;1.08;;
68854;SDS011;69984;-43.570;172.580;2024-01-10T01:05:36;6.53;;;0.70;;
68854;SDS011;69984;-43.570;172.580;2024-01-10T01:08:03;5.55;;;0.90;;
68854;SDS011;69984;-43.570;172.580;2024-01-10T01:10:30;9.43;;;1.15;;
68854;SDS011;69984;-43.570;172.580;2024-01-10T01:12:57;4.43;;;0.90;;
68854;SDS011;69984;-43.570;172.580;2024-01-10T01:15:24;7.03;;;0.63;;
68854;SDS011;69984;-43.570;172.580;2024-01-10T01:17:51;8.88;;;0.90;;
68854;SDS011;69984;-43.570;172.580;2024-01-10T01:20:18;9.15;;;2.60;;
68854;SDS011;69984;-43.570;172.580;2024-01-10T01:22:45;5.90;;;0.50;;
68854;SDS011;69984;-43.570;172.580;2024-01-10T01:25:12;2.63;;;0.45;;
68854;SDS011;69984;-43.570;172.580;2024-01-10T01:27:39;2.90;;;0.30;;
68854;SDS011;69984;-43.570;172.580;2024-01-10T01:30:06;5.70;;;0.77;;
68854;SDS011;69984;-43.570;172.580;2024-01-10T01:32:34;1.95;;;0.50;;
68854;SDS011;69984;-43.570;172.580;2024-01-10T01:35:01;2.83;;;0.73;;
68854;SDS011;69984;-43.570;172.580;2024-01-10T01:37:28;5.88;;;0.57;;
68854;SDS011;69984;-43.570;172.580;2024-01-10T01:39:55;6.28;;;0.85;;
68854;SDS011;69984;-43.570;172.580;2024-01-10T01:42:22;7.22;;;0.98;;
68854;SDS011;69984;-43.570;172.580;2024-01-10T01:44:49;4.47;;;0.77;;
68854;SDS011;69984;-43.570;172.580;2024-01-10T01:47:16;2.88;;;0.60;;
68854;SDS011;69984;-43.570;172.580;2024-01-10T01:49:43;6.18;;;0.63;;
68854;SDS011;69984;-43.570;172.580;2024-01-10T01:52:10;3.28;;;0.77;;
68854;SDS011;69984;-43.570;172.580;2024-01-10T01:54:37;6.50;;;0.68;;
68854;SDS011;69984;-43.570;172.580;2024-01-10T01:57:04;9.18;;;0.90;;
68854;SDS011;69984;-43.570;172.580;2024-01-10T01:59:31;7.47;;;1.10;;
68854;SDS011;69984;-43.570;172.580;2024-01-10T02:01:59;6.05;;;0.82;;
68854;SDS011;69984;-43.570;172.580;2024-01-10T02:04:29;15.18;;;1.08;;
68854;SDS011;69984;-43.570;172.580;2024-01-10T02:06:57;4.60;;;0.75;;
68854;SDS011;69984;-43.570;172.580;2024-01-10T02:09:25;9.25;;;1.52;;
68854;SDS011;69984;-43.570;172.580;2024-01-10T02:11:52;8.63;;;0.68;;
68854;SDS011;69984;-43.570;172.580;2024-01-10T02:14:19;7.07;;;0.90;;
68854;SDS011;69984;-43.570;172.580;2024-01-10T02:16:47;8.50;;;0.82;;
68854;SDS011;69984;-43.570;172.580;2024-01-10T02:19:23;6.82;;;1.35;;
68854;SDS011;69984;-43.570;172.580;2024-01-10T02:21:52;6.03;;;0.95;;
68854;SDS011;69984;-43.570;172.580;2024-01-10T02:24:19;10.10;;;0.82;;
68854;SDS011;69984;-43.570;172.580;2024-01-10T02:26:46;15.30;;;1.15;;
68854;SDS011;69984;-43.570;172.580;2024-01-10T02:29:15;2.83;;;0.47;;
68854;SDS011;69984;-43.570;172.580;2024-01-10T02:31:42;5.10;;;1.13;;
68854;SDS011;69984;-43.570;172.580;2024-01-10T02:34:11;12.48;;;1.15;;
68854;SDS011;69984;-43.570;172.580;2024-01-10T02:36:38;6.53;;;1.17;;
68854;SDS011;69984;-43.570;172.580;2024-01-10T02:39:04;7.63;;;1.25;;
68854;SDS011;69984;-43.570;172.580;2024-01-10T02:41:32;7.47;;;0.75;;
68854;SDS011;69984;-43.570;172.580;2024-01-10T02:43:59;4.05;;;0.95;;
68854;SDS011;69984;-43.570;172.580;2024-01-10T02:46:26;6.97;;;0.95;;
68854;SDS011;69984;-43.570;172.580;2024-01-10T02:48:53;7.03;;;1.00;;
68854;SDS011;69984;-43.570;172.580;2024-01-10T02:51:21;13.38;;;1.13;;
68854;SDS011;69984;-43.570;172.580;2024-01-10T02:53:50;11.88;;;1.35;;
68854;SDS011;69984;-43.570;172.580;2024-01-10T02:56:17;4.80;;;1.17;;
68854;SDS011;69984;-43.570;172.580;2024-01-10T02:58:44;8.77;;;1.00;;
68854;SDS011;69984;-43.570;172.580;2024-01-10T03:01:11;9.30;;;1.20;;
68854;SDS011;69984;-43.570;172.580;2024-01-10T03:03:40;5.53;;;0.98;;
68854;SDS011;69984;-43.570;172.580;2024-01-10T03:06:08;8.43;;;0.88;;
68854;SDS011;69984;-43.570;172.580;2024-01-10T03:08:35;9.77;;;0.85;;
68854;SDS011;69984;-43.570;172.580;2024-01-10T03:11:02;6.95;;;1.20;;
68854;SDS011;69984;-43.570;172.580;2024-01-10T03:13:29;5.32;;;1.48;;
68854;SDS011;69984;-43.570;172.580;2024-01-10T03:15:55;6.25;;;1.15;;
68854;SDS011;69984;-43.570;172.580;2024-01-10T03:18:23;5.85;;;0.90;;
68854;SDS011;69984;-43.570;172.580;2024-01-10T03:20:50;4.15;;;1.35;;
68854;SDS011;69984;-43.570;172.580;2024-01-10T03:23:17;4.43;;;1.00;;
68854;SDS011;69984;-43.570;172.580;2024-01-10T03:25:44;6.13;;;1.13;;
68854;SDS011;69984;-43.570;172.580;2024-01-10T03:28:15;5.18;;;0.90;;
68854;SDS011;69984;-43.570;172.580;2024-01-10T03:30:45;6.38;;;1.02;;
68854;SDS011;69984;-43.570;172.580;2024-01-10T03:33:12;5.15;;;0.77;;
68854;SDS011;69984;-43.570;172.580;2024-01-10T03:35:39;4.90;;;1.10;;
68854;SDS011;69984;-43.570;172.580;2024-01-10T03:38:06;7.28;;;1.15;;
68854;SDS011;69984;-43.570;172.580;2024-01-10T03:40:34;11.10;;;2.58;;
68854;SDS011;69984;-43.570;172.580;2024-01-10T03:43:01;12.68;;;1.67;;
68854;SDS011;69984;-43.570;172.580;2024-01-10T03:45:28;11.30;;;1.10;;
68854;SDS011;69984;-43.570;172.580;2024-01-10T03:47:55;3.03;;;0.93;;
68854;SDS011;69984;-43.570;172.580;2024-01-10T03:50:22;13.48;;;2.05;;
68854;SDS011;69984;-43.570;172.580;2024-01-10T03:52:49;7.13;;;1.35;;
68854;SDS011;69984;-43.570;172.580;2024-01-10T03:55:16;8.30;;;1.45;;
68854;SDS011;69984;-43.570;172.580;2024-01-10T03:57:43;6.38;;;1.63;;
68854;SDS011;69984;-43.570;172.580;2024-01-10T04:00:10;4.18;;;0.88;;
68854;SDS011;69984;-43.570;172.580;2024-01-10T04:02:38;11.00;;;1.80;;
68854;SDS011;69984;-43.570;172.580;2024-01-10T04:05:08;3.67;;;1.27;;
68854;SDS011;69984;-43.570;172.580;2024-01-10T04:07:41;7.80;;;1.17;;
68854;SDS011;69984;-43.570;172.580;2024-01-10T04:10:11;6.93;;;0.98;;
68854;SDS011;69984;-43.570;172.580;2024-01-10T04:12:40;9.40;;;2.10;;
68854;SDS011;69984;-43.570;172.580;2024-01-10T04:15:07;18.25;;;1.30;;
68854;SDS011;69984;-43.570;172.580;2024-01-10T04:17:34;12.75;;;2.13;;
68854;SDS011;69984;-43.570;172.580;2024-01-10T04:20:01;19.90;;;1.67;;
68854;SDS011;69984;-43.570;172.580;2024-01-10T04:22:29;8.93;;;1.45;;
68854;SDS011;69984;-43.570;172.580;2024-01-10T04:25:00;11.07;;;1.75;;
68854;SDS011;69984;-43.570;172.580;2024-01-10T04:27:27;13.38;;;1.63;;
68854;SDS011;69984;-43.570;172.580;2024-01-10T04:29:54;9.98;;;1.15;;
68854;SDS011;69984;-43.570;172.580;2024-01-10T04:32:21;6.47;;;1.63;;
68854;SDS011;69984;-43.570;172.580;2024-01-10T04:34:48;11.38;;;1.27;;
68854;SDS011;69984;-43.570;172.580;2024-01-10T04:37:16;11.40;;;1.48;;
68854;SDS011;69984;-43.570;172.580;2024-01-10T04:39:43;14.65;;;1.63;;
68854;SDS011;69984;-43.570;172.580;2024-01-10T04:42:13;15.38;;;1.05;;
68854;SDS011;69984;-43.570;172.580;2024-01-10T04:44:40;8.52;;;1.27;;
68854;SDS011;69984;-43.570;172.580;2024-01-10T04:47:07;8.10;;;1.38;;
68854;SDS011;69984;-43.570;172.580;2024-01-10T04:49:34;9.63;;;1.58;;
68854;SDS011;69984;-43.570;172.580;2024-01-10T04:52:01;13.25;;;1.60;;
68854;SDS011;69984;-43.570;172.580;2024-01-10T04:54:28;10.98;;;0.98;;
68854;SDS011;69984;-43.570;172.580;2024-01-10T04:56:55;2.22;;;0.68;;
68854;SDS011;69984;-43.570;172.580;2024-01-10T04:59:22;8.35;;;1.25;;
68854;SDS011;69984;-43.570;172.580;2024-01-10T05:01:50;13.43;;;1.30;;
68854;SDS011;69984;-43.570;172.580;2024-01-10T05:04:17;7.53;;;1.70;;
68854;SDS011;69984;-43.570;172.580;2024-01-10T05:06:44;8.65;;;1.30;;
68854;SDS011;69984;-43.570;172.580;2024-01-10T05:09:11;9.85;;;1.75;;
68854;SDS011;69984;-43.570;172.580;2024-01-10T05:11:39;8.52;;;1.15;;
68854;SDS011;69984;-43.570;172.580;2024-01-10T05:14:06;11.48;;;1.23;;
68854;SDS011;69984;-43.570;172.580;2024-01-10T05:16:33;7.20;;;1.15;;
68854;SDS011;69984;-43.570;172.580;2024-01-10T05:19:00;6.25;;;1.42;;
68854;SDS011;69984;-43.570;172.580;2024-01-10T05:21:33;9.90;;;1.35;;
68854;SDS011;69984;-43.570;172.580;2024-01-10T05:24:00;6.75;;;1.23;;
68854;SDS011;69984;-43.570;172.580;2024-01-10T05:26:27;13.38;;;1.83;;
68854;SDS011;69984;-43.570;172.580;2024-01-10T05:28:54;14.48;;;2.33;;
68854;SDS011;69984;-43.570;172.580;2024-01-10T05:31:22;5.68;;;1.17;;
68854;SDS011;69984;-43.570;172.580;2024-01-10T05:33:48;7.53;;;1.63;;
68854;SDS011;69984;-43.570;172.580;2024-01-10T05:36:15;6.35;;;1.17;;
68854;SDS011;69984;-43.570;172.580;2024-01-10T05:38:42;11.95;;;1.40;;
68854;SDS011;69984;-43.570;172.580;2024-01-10T05:41:09;12.20;;;1.02;;
68854;SDS011;69984;-43.570;172.580;2024-01-10T05:43:36;13.77;;;2.65;;
68854;SDS011;69984;-43.570;172.580;2024-01-10T05:46:03;11.85;;;1.13;;
68854;SDS011;69984;-43.570;172.580;2024-01-10T05:48:30;15.07;;;1.63;;
68854;SDS011;69984;-43.570;172.580;2024-01-10T05:50:57;9.45;;;1.77;;
68854;SDS011;69984;-43.570;172.580;2024-01-10T05:53:24;5.78;;;1.23;;
68854;SDS011;69984;-43.570;172.580;2024-01-10T05:55:51;8.25;;;1.33;;
68854;SDS011;69984;-43.570;172.580;2024-01-10T05:58:18;9.30;;;1.15;;
68854;SDS011;69984;-43.570;172.580;2024-01-10T06:00:45;5.72;;;1.23;;
68854;SDS011;69984;-43.570;172.580;2024-01-10T06:03:13;4.40;;;0.88;;
68854;SDS011;69984;-43.570;172.580;2024-01-10T06:05:40;7.85;;;1.25;;
68854;SDS011;69984;-43.570;172.580;2024-01-10T06:08:07;14.52;;;1.90;;
68854;SDS011;69984;-43.570;172.580;2024-01-10T06:10:34;14.95;;;1.30;;
68854;SDS011;69984;-43.570;172.580;2024-01-10T06:13:01;9.10;;;1.45;;
68854;SDS011;69984;-43.570;172.580;2024-01-10T06:15:29;7.55;;;1.90;;
68854;SDS011;69984;-43.570;172.580;2024-01-10T06:17:55;7.68;;;1.25;;
68854;SDS011;69984;-43.570;172.580;2024-01-10T06:20:22;7.32;;;1.48;;
68854;SDS011;69984;-43.570;172.580;2024-01-10T06:22:51;7.47;;;1.20;;
68854;SDS011;69984;-43.570;172.580;2024-01-10T06:25:18;6.03;;;1.05;;
68854;SDS011;69984;-43.570;172.580;2024-01-10T06:27:44;10.68;;;1.33;;
68854;SDS011;69984;-43.570;172.580;2024-01-10T06:30:12;5.22;;;0.88;;
68854;SDS011;69984;-43.570;172.580;2024-01-10T06:32:39;14.82;;;1.35;;
68854;SDS011;69984;-43.570;172.580;2024-01-10T06:35:06;13.68;;;1.42;;
68854;SDS011;69984;-43.570;172.580;2024-01-10T06:37:35;12.02;;;1.45;;
68854;SDS011;69984;-43.570;172.580;2024-01-10T06:40:02;15.05;;;1.77;;
68854;SDS011;69984;-43.570;172.580;2024-01-10T06:42:29;13.13;;;1.85;;
68854;SDS011;69984;-43.570;172.580;2024-01-10T06:44:56;8.15;;;1.38;;
68854;SDS011;69984;-43.570;172.580;2024-01-10T06:47:23;16.48;;;2.33;;
68854;SDS011;69984;-43.570;172.580;2024-01-10T06:49:50;15.45;;;1.65;;
68854;SDS011;69984;-43.570;172.580;2024-01-10T06:52:17;9.02;;;1.55;;
68854;SDS011;69984;-43.570;172.580;2024-01-10T06:54:44;11.38;;;1.65;;
68854;SDS011;69984;-43.570;172.580;2024-01-10T06:57:11;11.93;;;2.17;;
68854;SDS011;69984;-43.570;172.580;2024-01-10T06:59:38;12.95;;;1.40;;
68854;SDS011;69984;-43.570;172.580;2024-01-10T07:02:05;17.83;;;1.73;;
68854;SDS011;69984;-43.570;172.580;2024-01-10T07:04:32;17.48;;;1.73;;
68854;SDS011;69984;-43.570;172.580;2024-01-10T07:07:02;10.25;;;1.33;;
68854;SDS011;69984;-43.570;172.580;2024-01-10T07:09:29;4.22;;;1.27;;
68854;SDS011;69984;-43.570;172.580;2024-01-10T07:11:56;11.23;;;1.90;;
68854;SDS011;69984;-43.570;172.580;2024-01-10T07:14:23;14.57;;;1.40;;
68854;SDS011;69984;-43.570;172.580;2024-01-10T07:16:50;13.18;;;2.88;;
68854;SDS011;69984;-43.570;172.580;2024-01-10T07:19:17;14.18;;;1.77;;
68854;SDS011;69984;-43.570;172.580;2024-01-10T07:21:44;11.63;;;1.88;;
68854;SDS011;69984;-43.570;172.580;2024-01-10T07:24:11;9.55;;;2.10;;
68854;SDS011;69984;-43.570;172.580;2024-01-10T07:26:38;11.95;;;1.95;;
68854;SDS011;69984;-43.570;172.580;2024-01-10T07:29:06;11.90;;;2.03;;
68854;SDS011;69984;-43.570;172.580;2024-01-10T07:31:36;13.88;;;2.20;;
68854;SDS011;69984;-43.570;172.580;2024-01-10T07:34:03;12.88;;;1.60;;
68854;SDS011;69984;-43.570;172.580;2024-01-10T07:36:33;14.13;;;1.67;;
68854;SDS011;69984;-43.570;172.580;2024-01-10T07:39:07;11.73;;;1.45;;
68854;SDS011;69984;-43.570;172.580;2024-01-10T07:41:35;19.33;;;1.80;;
68854;SDS011;69984;-43.570;172.580;2024-01-10T07:44:02;12.10;;;2.03;;
68854;SDS011;69984;-43.570;172.580;2024-01-10T07:46:29;11.45;;;2.00;;
68854;SDS011;69984;-43.570;172.580;2024-01-10T07:48:56;20.02;;;1.80;;
68854;SDS011;69984;-43.570;172.580;2024-01-10T07:51:23;6.47;;;1.20;;
68854;SDS011;69984;-43.570;172.580;2024-01-10T07:53:50;15.57;;;1.67;;
68854;SDS011;69984;-43.570;172.580;2024-01-10T07:56:17;9.88;;;1.83;;
68854;SDS011;69984;-43.570;172.580;2024-01-10T07:58:45;15.15;;;1.77;;
68854;SDS011;69984;-43.570;172.580;2024-01-10T08:01:12;9.90;;;1.85;;
68854;SDS011;69984;-43.570;172.580;2024-01-10T08:03:39;13.27;;;2.70;;
68854;SDS011;69984;-43.570;172.580;2024-01-10T08:06:06;16.08;;;2.88;;
68854;SDS011;69984;-43.570;172.580;2024-01-10T08:08:33;8.63;;;1.45;;
68854;SDS011;69984;-43.570;172.580;2024-01-10T08:11:00;6.60;;;1.25;;
68854;SDS011;69984;-43.570;172.580;2024-01-10T08:13:28;15.60;;;1.80;;
68854;SDS011;69984;-43.570;172.580;2024-01-10T08:15:55;6.80;;;1.35;;
68854;SDS011;69984;-43.570;172.580;2024-01-10T08:18:22;16.80;;;1.73;;
68854;SDS011;69984;-43.570;172.580;2024-01-10T08:20:49;11.35;;;1.08;;
68854;SDS011;69984;-43.570;172.580;2024-01-10T08:23:17;11.13;;;1.83;;
68854;SDS011;69984;-43.570;172.580;2024-01-10T08:25:44;16.75;;;3.20;;
68854;SDS011;69984;-43.570;172.580;2024-01-10T08:28:11;13.77;;;2.28;;
68854;SDS011;69984;-43.570;172.580;2024-01-10T08:30:39;12.55;;;2.47;;
68854;SDS011;69984;-43.570;172.580;2024-01-10T08:33:06;11.05;;;1.33;;
68854;SDS011;69984;-43.570;172.580;2024-01-10T08:35:33;18.98;;;2.50;;
68854;SDS011;69984;-43.570;172.580;2024-01-10T08:38:00;13.50;;;1.88;;
68854;SDS011;69984;-43.570;172.580;2024-01-10T08:40:30;25.75;;;2.22;;
68854;SDS011;69984;-43.570;172.580;2024-01-10T08:42:57;19.20;;;1.90;;
68854;SDS011;69984;-43.570;172.580;2024-01-10T08:45:24;26.95;;;2.60;;
68854;SDS011;69984;-43.570;172.580;2024-01-10T08:47:51;14.93;;;2.38;;
68854;SDS011;69984;-43.570;172.580;2024-01-10T08:50:18;25.05;;;3.30;;
68854;SDS011;69984;-43.570;172.580;2024-01-10T08:52:45;11.25;;;1.73;;
68854;SDS011;69984;-43.570;172.580;2024-01-10T08:55:13;13.15;;;2.50;;
68854;SDS011;69984;-43.570;172.580;2024-01-10T08:57:40;21.73;;;2.70;;
68854;SDS011;69984;-43.570;172.580;2024-01-10T09:00:07;22.95;;;2.92;;
68854;SDS011;69984;-43.570;172.580;2024-01-10T09:02:38;17.58;;;2.53;;
68854;SDS011;69984;-43.570;172.580;2024-01-10T09:05:05;11.35;;;1.75;;
68854;SDS011;69984;-43.570;172.580;2024-01-10T09:07:35;9.77;;;1.98;;
68854;SDS011;69984;-43.570;172.580;2024-01-10T09:10:03;7.75;;;1.73;;
68854;SDS011;69984;-43.570;172.580;2024-01-10T09:12:31;19.98;;;2.15;;
68854;SDS011;69984;-43.570;172.580;2024-01-10T09:14:58;18.80;;;3.00;;
68854;SDS011;69984;-43.570;172.580;2024-01-10T09:17:25;25.60;;;2.50;;
68854;SDS011;69984;-43.570;172.580;2024-01-10T09:19:53;15.80;;;3.13;;
68854;SDS011;69984;-43.570;172.580;2024-01-10T09:22:20;26.08;;;2.47;;
68854;SDS011;69984;-43.570;172.580;2024-01-10T09:24:47;20.70;;;2.67;;
68854;SDS011;69984;-43.570;172.580;2024-01-10T09:27:14;14.57;;;2.28;;
68854;SDS011;69984;-43.570;172.580;2024-01-10T09:29:41;17.08;;;2.10;;
68854;SDS011;69984;-43.570;172.580;2024-01-10T09:32:09;13.63;;;2.72;;
68854;SDS011;69984;-43.570;172.580;2024-01-10T09:34:36;18.00;;;3.33;;
68854;SDS011;69984;-43.570;172.580;2024-01-10T09:37:03;19.48;;;2.30;;
68854;SDS011;69984;-43.570;172.580;2024-01-10T09:39:30;18.92;;;2.28;;
68854;SDS011;69984;-43.570;172.580;2024-01-10T09:41:57;21.88;;;2.38;;
68854;SDS011;69984;-43.570;172.580;2024-01-10T09:44:25;15.77;;;2.33;;
68854;SDS011;69984;-43.570;172.580;2024-01-10T09:46:52;24.88;;;2.70;;
68854;SDS011;69984;-43.570;172.580;2024-01-10T09:49:20;20.92;;;2.28;;
68854;SDS011;69984;-43.570;172.580;2024-01-10T09:51:48;18.60;;;2.33;;
68854;SDS011;69984;-43.570;172.580;2024-01-10T09:54:16;22.05;;;2.50;;
68854;SDS011;69984;-43.570;172.580;2024-01-10T09:56:45;25.30;;;3.45;;
68854;SDS011;69984;-43.570;172.580;2024-01-10T09:59:13;24.15;;;3.20;;
68854;SDS011;69984;-43.570;172.580;2024-01-10T10:01:40;28.05;;;3.67;;
68854;SDS011;69984;-43.570;172.580;2024-01-10T10:04:09;20.40;;;2.92;;
68854;SDS011;69984;-43.570;172.580;2024-01-10T10:06:38;20.50;;;2.72;;
68854;SDS011;69984;-43.570;172.580;2024-01-10T10:09:05;30.25;;;2.58;;
68854;SDS011;69984;-43.570;172.580;2024-01-10T10:11:34;27.75;;;2.80;;
68854;SDS011;69984;-43.570;172.580;2024-01-10T10:14:14;27.88;;;3.05;;
68854;SDS011;69984;-43.570;172.580;2024-01-10T10:16:41;26.17;;;2.88;;
68854;SDS011;69984;-43.570;172.580;2024-01-10T10:19:08;20.70;;;2.22;;
68854;SDS011;69984;-43.570;172.580;2024-01-10T10:21:37;20.08;;;2.92;;
68854;SDS011;69984;-43.570;172.580;2024-01-10T10:24:04;19.95;;;3.53;;
68854;SDS011;69984;-43.570;172.580;2024-01-10T10:26:33;21.90;;;2.72;;
68854;SDS011;69984;-43.570;172.580;2024-01-10T10:29:00;21.38;;;2.80;;
68854;SDS011;69984;-43.570;172.580;2024-01-10T10:31:28;21.05;;;2.60;;
68854;SDS011;69984;-43.570;172.580;2024-01-10T10:33:56;22.50;;;3.25;;
68854;SDS011;69984;-43.570;172.580;2024-01-10T10:36:31;20.35;;;2.33;;
68854;SDS011;69984;-43.570;172.580;2024-01-10T10:39:02;24.98;;;3.45;;
68854;SDS011;69984;-43.570;172.580;2024-01-10T10:41:29;24.77;;;3.00;;
68854;SDS011;69984;-43.570;172.580;2024-01-10T10:46:26;16.67;;;2.55;;
68854;SDS011;69984;-43.570;172.580;2024-01-10T10:48:53;22.52;;;2.83;;
68854;SDS011;69984;-43.570;172.580;2024-01-10T10:51:32;17.90;;;2.45;;
68854;SDS011;69984;-43.570;172.580;2024-01-10T10:53:59;15.50;;;2.08;;
68854;SDS011;69984;-43.570;172.580;2024-01-10T10:56:30;18.00;;;2.22;;
68854;SDS011;69984;-43.570;172.580;2024-01-10T10:59:00;24.55;;;2.92;;
68854;SDS011;69984;-43.570;172.580;2024-01-10T11:01:28;15.43;;;2.47;;
68854;SDS011;69984;-43.570;172.580;2024-01-10T11:03:55;26.45;;;2.92;;
68854;SDS011;69984;-43.570;172.580;2024-01-10T11:06:23;19.00;;;2.28;;
68854;SDS011;69984;-43.570;172.580;2024-01-10T11:08:53;23.27;;;3.25;;
68854;SDS011;69984;-43.570;172.580;2024-01-10T11:14:30;23.10;;;2.78;;
68854;SDS011;69984;-43.570;172.580;2024-01-10T11:17:24;13.77;;;3.08;;
68854;SDS011;69984;-43.570;172.580;2024-01-10T11:24:03;14.77;;;2.30;;
68854;SDS011;69984;-43.570;172.580;2024-01-10T11:25:59;12.43;;;1.75;;
68854;SDS011;69984;-43.570;172.580;2024-01-10T11:28:31;24.73;;;2.47;;
68854;SDS011;69984;-43.570;172.580;2024-01-10T11:30:59;18.00;;;2.97;;
68854;SDS011;69984;-43.570;172.580;2024-01-10T11:33:35;19.10;;;2.65;;
68854;SDS011;69984;-43.570;172.580;2024-01-10T11:36:09;18.73;;;2.05;;
68854;SDS011;69984;-43.570;172.580;2024-01-10T11:38:44;25.98;;;3.10;;
68854;SDS011;69984;-43.570;172.580;2024-01-10T11:41:15;16.38;;;2.90;;
68854;SDS011;69984;-43.570;172.580;2024-01-10T11:46:43;13.00;;;2.25;;
68854;SDS011;69984;-43.570;172.580;2024-01-10T11:49:14;25.00;;;2.55;;
68854;SDS011;69984;-43.570;172.580;2024-01-10T11:51:43;20.52;;;2.45;;
68854;SDS011;69984;-43.570;172.580;2024-01-10T11:54:10;19.15;;;2.75;;
68854;SDS011;69984;-43.570;172.580;2024-01-10T11:56:40;18.15;;;3.00;;
68854;SDS011;69984;-43.570;172.580;2024-01-10T12:01:41;20.70;;;2.92;;
68854;SDS011;69984;-43.570;172.580;2024-01-10T12:04:09;12.77;;;1.92;;
68854;SDS011;69984;-43.570;172.580;2024-01-10T12:06:36;22.80;;;2.42;;
68854;SDS011;69984;-43.570;172.580;2024-01-10T12:09:03;20.15;;;2.92;;
68854;SDS011;69984;-43.570;172.580;2024-01-10T12:11:34;12.82;;;2.15;;
68854;SDS011;69984;-43.570;172.580;2024-01-10T12:14:02;19.60;;;2.58;;
68854;SDS011;69984;-43.570;172.580;2024-01-10T12:16:29;23.80;;;2.70;;
68854;SDS011;69984;-43.570;172.580;2024-01-10T12:18:56;10.45;;;1.83;;
68854;SDS011;69984;-43.570;172.580;2024-01-10T12:21:23;20.30;;;2.85;;
68854;SDS011;69984;-43.570;172.580;2024-01-10T12:23:50;18.55;;;2.25;;
68854;SDS011;69984;-43.570;172.580;2024-01-10T12:26:19;20.85;;;2.85;;
68854;SDS011;69984;-43.570;172.580;2024-01-10T12:28:53;10.48;;;2.10;;
68854;SDS011;69984;-43.570;172.580;2024-01-10T12:31:27;15.80;;;2.67;;
68854;SDS011;69984;-43.570;172.580;2024-01-10T12:33:55;21.80;;;2.40;;
68854;SDS011;69984;-43.570;172.580;2024-01-10T12:36:22;18.83;;;2.20;;
68854;SDS011;69984;-43.570;172.580;2024-01-10T12:38:50;18.25;;;2.72;;
68854;SDS011;69984;-43.570;172.580;2024-01-10T12:41:18;11.30;;;2.00;;
68854;SDS011;69984;-43.570;172.580;2024-01-10T12:43:54;10.13;;;1.95;;
68854;SDS011;69984;-43.570;172.580;2024-01-10T12:46:22;16.20;;;1.98;;
68854;SDS011;69984;-43.570;172.580;2024-01-10T12:49:05;11.90;;;2.30;;
68854;SDS011;69984;-43.570;172.580;2024-01-10T12:51:33;17.52;;;2.45;;
68854;SDS011;69984;-43.570;172.580;2024-01-10T12:54:03;14.93;;;2.22;;
68854;SDS011;69984;-43.570;172.580;2024-01-10T12:56:30;25.42;;;3.33;;
68854;SDS011;69984;-43.570;172.580;2024-01-10T12:58:57;9.10;;;1.90;;
68854;SDS011;69984;-43.570;172.580;2024-01-10T13:01:25;14.98;;;2.22;;
68854;SDS011;69984;-43.570;172.580;2024-01-10T13:03:52;28.10;;;3.70;;
68854;SDS011;69984;-43.570;172.580;2024-01-10T13:06:19;14.38;;;2.22;;
68854;SDS011;69984;-43.570;172.580;2024-01-10T13:08:48;15.60;;;2.22;;
68854;SDS011;69984;-43.570;172.580;2024-01-10T13:11:15;19.52;;;3.03;;
68854;SDS011;69984;-43.570;172.580;2024-01-10T13:13:42;17.33;;;2.50;;
68854;SDS011;69984;-43.570;172.580;2024-01-10T13:16:10;18.58;;;1.77;;
68854;SDS011;69984;-43.570;172.580;2024-01-10T13:18:38;8.23;;;1.98;;
68854;SDS011;69984;-43.570;172.580;2024-01-10T13:21:05;17.50;;;2.25;;
68854;SDS011;69984;-43.570;172.580;2024-01-10T13:23:33;18.27;;;2.65;;
68854;SDS011;69984;-43.570;172.580;2024-01-10T13:26:02;13.32;;;1.83;;
68854;SDS011;69984;-43.570;172.580;2024-01-10T13:28:29;12.38;;;2.72;;
68854;SDS011;69984;-43.570;172.580;2024-01-10T13:30:56;10.45;;;1.85;;
68854;SDS011;69984;-43.570;172.580;2024-01-10T13:33:23;15.02;;;2.30;;
68854;SDS011;69984;-43.570;172.580;2024-01-10T13:35:51;10.60;;;1.75;;
68854;SDS011;69984;-43.570;172.580;2024-01-10T13:38:18;11.25;;;1.90;;
68854;SDS011;69984;-43.570;172.580;2024-01-10T13:40:45;12.85;;;2.03;;
68854;SDS011;69984;-43.570;172.580;2024-01-10T13:43:12;17.77;;;1.73;;
68854;SDS011;69984;-43.570;172.580;2024-01-10T13:45:40;13.43;;;1.80;;
68854;SDS011;69984;-43.570;172.580;2024-01-10T13:48:08;11.52;;;1.65;;
68854;SDS011;69984;-43.570;172.580;2024-01-10T13:50:36;8.57;;;1.50;;
68854;SDS011;69984;-43.570;172.580;2024-01-10T13:53:03;18.70;;;2.17;;
68854;SDS011;69984;-43.570;172.580;2024-01-10T13:55:30;13.88;;;1.60;;
68854;SDS011;69984;-43.570;172.580;2024-01-10T13:57:58;13.68;;;2.20;;
68854;SDS011;69984;-43.570;172.580;2024-01-10T14:00:25;21.77;;;2.95;;
68854;SDS011;69984;-43.570;172.580;2024-01-10T14:02:53;16.88;;;1.90;;
68854;SDS011;69984;-43.570;172.580;2024-01-10T14:05:24;13.48;;;1.83;;
68854;SDS011;69984;-43.570;172.580;2024-01-10T14:07:52;10.85;;;1.30;;
68854;SDS011;69984;-43.570;172.580;2024-01-10T14:10:20;11.35;;;2.35;;
68854;SDS011;69984;-43.570;172.580;2024-01-10T14:12:47;15.88;;;1.73;;
68854;SDS011;69984;-43.570;172.580;2024-01-10T14:15:14;14.27;;;2.53;;
68854;SDS011;69984;-43.570;172.580;2024-01-10T14:17:41;16.33;;;1.83;;
68854;SDS011;69984;-43.570;172.580;2024-01-10T14:20:09;18.10;;;1.77;;